Historyczne dane pomiarowe

Dodano dane terminowe – wersja testowa.

Dane z okresu 1951-2019

Wersja bazy: 1.34 [2019-03-16, lista zmian], aktualizacja planowana na 2019-04-15

Dane meteo z obszaru Polski uzyskane na podstawie danych udostępnionych przez Instytut Meteorologii i Gospodarki Wodnej – Państwowy Instytut Badawczy.

 

Wybierz Datę:    

       

TemperaturaWilgotnośćWiatrCiśnienieOpadyŚniegCzas trwania zjawisk
 Stacja t tx tn tng RH VA  wxwx mslp ppp RRR   cm mm wxwxwxwxwxwxwx
1980-04-17 0.3 3.6 -4.3- 56.1 3.5 1.6 4.4 0.0 0.0- 797.8 0.0 0.0 0.0135 4.3 13.1-------
1980-04-18 -0.7 2.4 -2.4- 81.0 4.7 5.5 10.5 13.3 3.0- 789.9 3.1 0.9 2.2130 3.4 3.9- 5.4- 6.0-- 0.5
1980-04-19 -5.2 -2.2 -7.8- 95.1 4.0 7.9 14.4 24.0 9.5- 778.5 6.0 3.5 2.5128- 0.0- 8.7- 22.0---
1980-04-20-11.0 -4.3-13.5- 83.6 2.2 4.5 10.4 8.5 0.0- 779.1 0.0 0.0 0.0127 4.0 1.2-------
1980-04-21 -8.2 -6.7 -9.8- 78.5 2.6 6.6 7.3 7.2 0.0- 785.3 13.3 8.3 5.0122- 0.0- 13.8- 15.3---
1980-04-22 -6.1 -2.4 -8.4- 95.3 3.7 7.9 5.0 4.4 0.0- 784.4 4.4 4.4 0.0130- 0.3- 8.3- 24.0---
1980-04-23 -6.9 -5.3 -8.3- 93.5 3.4 8.0 5.6 3.5 0.0- 783.4 0.0 0.0 0.0125- 1.6--- 24.0---
1980-04-24 -7.6 -5.8 -8.6- 93.1 3.2 7.8 9.1 8.5 0.0- 784.5 7.7 3.9 3.8123- 0.8- 12.0- 24.0---
1980-04-25 -6.5 -3.8 -8.8- 94.0 3.6 8.0 9.4 10.8 0.0- 787.4 3.8 2.2 1.6130 3.6 0.0- 14.6- 22.0---
1980-04-26 -5.1 -2.5 -6.6- 95.5 4.0 7.6 5.0 1.5 0.0- 790.4 4.7 4.7 0.0132- 0.1- 16.8- 18.5---
1980-04-27 -3.1 -0.2 -7.8- 72.5 3.6 7.5 4.4 0.3 0.0- 794.3 2.0 1.4 0.6134- 5.5- 4.0- 9.5---
1980-04-28 -1.6 1.4 -3.4- 98.4 5.4 7.3 2.6 0.0 0.0- 795.3 7.4 6.4 1.0130- 1.0- 11.7- 24.0-- 1.8
1980-04-29 -1.0 1.3 -2.2- 98.0 5.6 7.4 3.9 0.0 0.0- 796.5 0.9 0.8 0.1135- 0.2- 6.4- 21.2---
1980-04-30 0.0 3.3 -1.8- 88.8 5.4 5.8 3.5 0.0 0.0- 798.4 1.0 1.0 0.0132 4.0 4.6- 2.5- 8.0-- 1.0
1980-05-01 0.1 3.5 -1.2- 88.1 5.4 4.9 3.9 0.0 0.0- 795.8 7.6 5.7 1.9127- 4.6- 0.4- 15.5-- 2.8
1980-05-02 -2.4 -0.6 -3.8- 97.8 5.0 8.0 6.8 0.0 0.0- 792.7 9.4 0.7 8.7125- 0.0 5.6 5.8- 24.0---
1980-05-03 -6.3 -3.5 -8.8- 95.8 3.7 7.0 4.6 0.0 0.0- 791.0 4.3 4.3 0.0133- 0.0- 6.5- 19.8---
1980-05-04 -6.6 -4.3 -9.7- 94.6 3.5 7.8 6.8 0.0 0.0- 788.3 3.5 1.7 1.8136- 3.1- 10.8- 24.0---
1980-05-05 -2.8 0.1 -7.0- 91.8 4.6 6.5 6.6 1.8 0.0- 789.7 0.0 0.0 0.0140 3.4 1.8--- 1.3---
1980-05-06 1.3 4.1 -0.4- 91.3 6.2 4.3 2.8 0.0 0.0- 789.6 0.0 0.0 0.0137- 7.0-------
1980-05-07 2.4 6.2 1.0- 89.6 6.5 4.1 3.3 0.0 0.0- 789.6 5.7 2.6 3.1128 4.1 6.7 7.6-- 2.5- 4.0-
1980-05-08 2.2 5.0 0.0- 94.4 6.7 5.8 4.8 0.0 0.0- 792.5 2.8 2.8 0.0122 3.8 2.3 5.8-- 8.1-- 1.9
1980-05-09 2.6 7.0 1.0- 90.8 6.7 5.6 5.1 0.0 0.0- 796.3 1.8 1.1 0.7120 3.8 4.6 3.4- 1.3 11.3-- 1.6
1980-05-10 -1.5 1.8 -2.8- 99.0 5.4 8.0 10.6 19.5 0.0- 800.7 7.0 6.3 0.7112 4.1 0.0 7.9 4.6- 24.0---
1980-05-11 -3.5 -0.4 -6.4- 81.3 3.8 2.9 11.5 18.2 0.0- 804.0 0.0 0.0 0.0110- 14.6--- 0.3---
1980-05-12 -3.8 -0.5 -6.4- 78.5 3.6 3.0 10.0 9.3 0.0- 802.6 0.0 0.0 0.0105- 11.6----- 4.5-
1980-05-13 -6.2 -3.5 -7.8- 87.4 3.3 6.4 11.1 19.8 2.0- 800.4 0.2 0.0 0.2103- 5.8- 3.2- 5.3- 1.7-
1980-05-14 -8.6 -5.0-12.4- 82.8 2.6 3.5 8.6 7.5 0.0- 800.4 0.0 0.0 0.0100- 9.5- 0.7- 6.2---
1980-05-15 -6.8 -3.6 -9.6- 74.9 2.8 2.8 5.4 0.0 0.0- 800.5 0.2 0.2 0.0 95 3.3 8.5- 3.5--- 8.0-
1980-05-16 -5.1 -2.3 -9.0- 84.4 3.6 4.0 9.1 7.5 0.0- 798.0 0.0 0.0 0.0 93- 6.0----- 4.0-
238.6 ms

 

Źródłem pochodzenia danych jest Instytut Meteorologii i Gospodarki Wodnej – Państwowy Instytut Badawczy. Dane Instytutu Meteorologii i Gospodarki Wodnej – Państwowego Instytutu Badawczego zostały przetworzone.

Dane źródłowe można odnaleźć na stronie https://dane.imgw.pl